Historyczne dane pomiarowe

Dodano dane terminowe – wersja testowa.

Dane z okresu 1951-2019

Wersja bazy: 1.34 [2019-03-16, lista zmian], aktualizacja planowana na 2019-04-15

Dane meteo z obszaru Polski uzyskane na podstawie danych udostępnionych przez Instytut Meteorologii i Gospodarki Wodnej – Państwowy Instytut Badawczy.

 

Wybierz Datę:    

       

TemperaturaWilgotnośćZachmurzenieWiatrCiśnienieWidzialnośćZjawiska
 Data    tng td wb rh cc ccl cl cm ch dir g1 g2 mslp ppp      
1999-08-08 00:00:00 18.0--- 16.9 17.393wxwxwx2wx--1004.2 994.4 2.3---wx
1999-08-08 01:00:00 19.0--- 17.9 18.394wxwxwxwx0wx--1003.7 993.9----wx
1999-08-08 02:00:00 18.9--- 17.8 18.293wxwxwxwx0wx--1003.4 993.6----wx
1999-08-08 03:00:00 18.6--- 17.8 18.195wxwxwxwx1wx--1002.9 993.1----wx
1999-08-08 04:00:00 18.0--- 17.2 17.595wxwxwx1wx--1002.8 993.0----wx
1999-08-08 05:00:00 18.3--- 17.4 17.794wxwxwxwx1wx--1002.8 993.0----wx
1999-08-08 06:00:00 19.2--- 18.1 18.594wxwxwxwx2wx--1002.7 992.9 0.0---wxw1
1999-08-08 07:00:00 21.5--- 19.3 20.087wxwxwx2wx--1002.2 992.5----wx
1999-08-08 08:00:00 23.1--- 18.3 19.974wxwxwxwx3wx--1002.3 992.6----wx
1999-08-08 09:00:00 24.7--- 16.6 19.461wxwxwx3wx--1002.2 992.6----wx
1999-08-08 10:00:00 25.5--- 16.5 19.657wxwxwx2wx--1002.0 992.4----wx
1999-08-08 11:00:00 26.4--- 16.6 20.055wxwxwxwx4wx--1001.6 992.1----wx
1999-08-08 12:00:00 27.8--- 15.4 19.847wxwxwxwx4wx--1001.4 991.9 0.0---wx
1999-08-08 13:00:00 27.7--- 14.9 19.546wxwxwxwx4wx--1000.9 991.4----wx
1999-08-08 14:00:00 28.6--- 14.2 19.441wxwxwxwx3wx--1000.9 991.4----wx
1999-08-08 15:00:00 29.1--- 13.8 19.439wxwxwxwx3wx--1000.7 991.2----wx
1999-08-08 16:00:00 28.8--- 15.2 20.044wxwxwxwx3wx--1000.7 991.2----wx
1999-08-08 17:00:00 27.5--- 14.5 19.245wxwxwxwx1wx--1000.9 991.4----wx
1999-08-08 18:00:00 24.1--- 18.1 20.169wxwxwxwx0wx--1001.0 991.4 0.0---wx
1999-08-08 19:00:00 22.0--- 18.2 19.579wxwxwx0wx--1001.6 991.9----wx
1999-08-08 20:00:00 21.3--- 17.6 18.980wxwxwx0wx--1001.8 992.1----wx
1999-08-08 21:00:00 21.3--- 18.0 19.181wxwxwx0wx--1001.9 992.2----wx
1999-08-08 22:00:00 20.7--- 18.0 18.984wxwxwx0wx--1002.0 992.3----wx
1999-08-08 23:00:00 18.8--- 15.3 16.680wxwxwx0wx--1002.3 992.5----wx

 

Źródłem pochodzenia danych jest Instytut Meteorologii i Gospodarki Wodnej – Państwowy Instytut Badawczy. Dane Instytutu Meteorologii i Gospodarki Wodnej – Państwowego Instytutu Badawczego zostały przetworzone.

Dane źródłowe można odnaleźć na stronie https://dane.imgw.pl